CIET2: Wichita River Nr Charlie, TX

Data processed at Mon Apr 24 2017 21:56


All information presented herein is the property of the government of the United States of America and may be revised or deleted at any time without prior notice.
Dissemination of this information without the expressed written consent of the Public Affairs Office, Tulsa District U.S. Army Corps of Engineers is strictly prohibited.
These data are gathered electronically and, as presented, have not undergone any form of quality control. These data are not guaranteed to be valid or correct.
Go to home page.
Go to station list.
Go to station map.

Upstream stations:

Downstream station:
Previous Day
Next Day
Current Day
    
SHEF ID:       CHWT2     Wichita River nr Charlie, TX
STATION TYPE:  

               PRECIP     STAGE  RIV-FLOW  WTR-TEMP   CONDUCT  BAT-LOAD
                   in        ft       cfs         C   umho/cm      volt
              Ccp-Rev   Ccp-Rev   Ccp-Rev   Ccp-Rev   Ccp-Rev   Ccp-Rev
(US/Central)
04/24 00:00      0.00      5.35       150     19.19      1723     12.77
04/24 01:00      0.00      5.34       146     18.89      1764     12.71
04/24 02:00      0.00      5.32       140     18.64      1856     12.71
04/24 03:00      0.00      5.32       140     18.43      2016     12.65
04/24 04:00      0.00      5.31       140     18.22      2223     12.65
04/24 05:00      0.00      5.30       136     18.03      2409     12.65
04/24 06:00      0.00      5.29       133     17.85      2510     12.60
04/24 07:00      0.00      5.29       133     17.68      2504     12.60
04/24 08:00      0.00      5.28       130     17.52      2416     13.77
04/24 09:00      0.00      5.28       130     17.42      2293     14.76
04/24 10:00      0.00      5.28       130     17.48      2178     14.59
04/24 11:00      0.00      5.28       130     17.79      2101     14.41
04/24 12:00      0.00      5.28       130     18.28      2071     14.35
04/24 13:00      0.00      5.29       133     18.78      2091     14.35
04/24 14:00      0.00      5.29       133     19.28      2154     14.30
04/24 15:00      0.00      5.29       133     19.83      2243     14.30
04/24 16:00      0.00      5.30       136     20.33      2328     14.30
04/24 17:00      0.00      5.30       136     20.71      2386     14.30
04/24 18:00      0.00      5.31       140     20.92      2398     13.77
04/24 19:00      0.00      5.32       140     20.98      2359     13.53
04/24 20:00      0.00      5.32       140     20.90      2278     13.12
04/24 21:00      0.00      5.33       143     20.74      2175     12.89
04/24 22:00      ----      ----      ----      ----      ----      ----
04/24 23:00      ----      ----      ----      ----      ----      ----